createdAt,value
2022-08-26T00:01:56.799Z,101703.75
2022-08-26T00:04:26.141Z,101713.75
2022-08-26T00:07:01.796Z,101709.44
2022-08-26T00:09:42.147Z,101708.16
2022-08-26T00:12:13.993Z,101703.59
2022-08-26T00:14:41.794Z,101720.50
2022-08-26T00:17:12.850Z,101719.47
2022-08-26T00:19:43.546Z,101724.63
2022-08-26T00:22:12.642Z,101714.03
2022-08-26T00:24:47.838Z,101706.41
2022-08-26T00:27:14.825Z,101715.66
2022-08-26T00:29:41.417Z,101728.03
2022-08-26T00:32:18.901Z,101721.50
2022-08-26T00:34:47.607Z,101726.63
2022-08-26T00:37:18.428Z,101730.69
2022-08-26T00:39:51.020Z,101741.84
2022-08-26T00:42:22.095Z,101729.13
2022-08-26T00:44:49.378Z,101730.63
2022-08-26T00:47:44.324Z,101735.22
2022-08-26T00:50:16.984Z,101739.97
2022-08-26T00:52:47.522Z,101734.72
2022-08-26T00:55:21.711Z,101745.03
2022-08-26T00:57:52.122Z,101744.78
2022-08-26T01:00:26.165Z,101738.66
2022-08-26T01:02:55.974Z,101738.66
2022-08-26T01:05:27.940Z,101747.28
2022-08-26T01:07:56.961Z,101744.56
2022-08-26T01:10:31.182Z,101738.03
2022-08-26T01:13:04.896Z,101737.94
2022-08-26T01:15:40.078Z,101738.72
2022-08-26T01:18:12.810Z,101744.47
2022-08-26T01:21:12.376Z,101750.47
2022-08-26T01:23:46.244Z,101751.25
2022-08-26T01:26:19.706Z,101753.28
2022-08-26T01:28:50.713Z,101749.44
2022-08-26T01:31:23.672Z,101748.38
2022-08-26T01:34:01.399Z,101744.28
2022-08-26T01:36:29.687Z,101729.59
2022-08-26T01:38:57.151Z,101721.94
2022-08-26T01:41:27.196Z,101718.88
2022-08-26T01:43:56.854Z,101715.41
2022-08-26T01:46:25.755Z,101723.63
2022-08-26T01:48:55.617Z,101723.78
2022-08-26T01:51:27.360Z,101717.63
2022-08-26T01:53:57.029Z,101721.13
2022-08-26T01:56:33.446Z,101715.03
2022-08-26T01:59:12.765Z,101726.38
2022-08-26T02:01:40.787Z,101733.38
2022-08-26T02:04:30.538Z,101735.06
2022-08-26T02:06:57.505Z,101744.63
2022-08-26T02:09:26.590Z,101734.88
2022-08-26T02:11:53.801Z,101745.41
2022-08-26T02:14:28.188Z,101731.97
2022-08-26T02:16:55.086Z,101727.75
2022-08-26T02:19:39.014Z,101729.22
2022-08-26T02:22:12.518Z,101729.38
2022-08-26T02:24:58.205Z,101732.09
2022-08-26T02:27:34.683Z,101722.69
2022-08-26T02:30:17.137Z,101730.19
2022-08-26T02:32:44.339Z,101727.53
2022-08-26T02:35:20.248Z,101723.78
2022-08-26T02:37:47.950Z,101736.97
2022-08-26T02:40:21.198Z,101745.25
2022-08-26T02:42:49.438Z,101766.41
2022-08-26T02:45:23.223Z,101767.94
2022-08-26T02:47:52.861Z,101757.63
2022-08-26T02:50:20.504Z,101755.34
2022-08-26T02:52:57.090Z,101756.69
2022-08-26T02:55:24.823Z,101751.53
2022-08-26T02:57:57.965Z,101749.16
2022-08-26T03:00:39.002Z,101750.97
2022-08-26T03:03:12.798Z,101754.28
2022-08-26T03:05:42.000Z,101754.38
2022-08-26T03:08:10.601Z,101749.81
2022-08-26T03:10:40.531Z,101751.53
2022-08-26T03:13:08.372Z,101756.69
2022-08-26T03:15:49.273Z,101761.44
2022-08-26T03:18:17.709Z,101753.94
2022-08-26T03:20:44.579Z,101758.78
2022-08-26T03:23:11.584Z,101753.44
2022-08-26T03:25:38.189Z,101754.59
2022-08-26T03:28:09.543Z,101750.97
2022-08-26T03:30:36.305Z,101747.53
2022-08-26T03:33:06.755Z,101752.88
2022-08-26T03:35:34.885Z,101757.19
2022-08-26T03:38:03.987Z,101760.31
2022-08-26T03:40:31.384Z,101749.44
2022-08-26T03:43:01.821Z,101753.06
2022-08-26T03:45:28.669Z,101751.53
2022-08-26T03:47:55.293Z,101764.13
2022-08-26T03:50:25.137Z,101755.34
2022-08-26T03:52:54.835Z,101758.59
2022-08-26T03:55:36.487Z,101754.28
2022-08-26T03:58:04.083Z,101746.38
2022-08-26T04:00:31.098Z,101739.34
2022-08-26T04:02:57.914Z,101741.13
2022-08-26T04:05:28.332Z,101737.69
2022-08-26T04:07:57.341Z,101744.84
2022-08-26T04:10:28.637Z,101741.78
2022-08-26T04:13:01.367Z,101738.91
2022-08-26T04:15:31.396Z,101735.88
2022-08-26T04:17:58.047Z,101739.50
2022-08-26T04:20:25.835Z,101741.44
2022-08-26T04:22:56.969Z,101747.34
2022-08-26T04:25:28.602Z,101746.56
2022-08-26T04:27:57.393Z,101745.41
2022-08-26T04:30:24.123Z,101743.53
2022-08-26T04:32:54.298Z,101741.81
2022-08-26T04:35:26.036Z,101746.94
2022-08-26T04:37:55.796Z,101755.34
2022-08-26T04:40:26.616Z,101749.63
2022-08-26T04:42:53.921Z,101751.91
2022-08-26T04:45:24.330Z,101758.78
2022-08-26T04:47:55.675Z,101759.19
2022-08-26T04:50:25.152Z,101753.25
2022-08-26T04:52:51.859Z,101763.75
2022-08-26T04:55:18.546Z,101769.75
2022-08-26T04:57:48.591Z,101767.28
2022-08-26T05:00:23.942Z,101767.56
2022-08-26T05:03:00.413Z,101767.28
2022-08-26T05:05:28.573Z,101776.16
2022-08-26T05:07:55.113Z,101780.16
2022-08-26T05:10:24.615Z,101793.41
2022-08-26T05:12:52.278Z,101795.22
2022-08-26T05:15:25.553Z,101793.41
2022-08-26T05:17:52.127Z,101795.16
2022-08-26T05:20:22.692Z,101788.47
2022-08-26T05:22:55.530Z,101790.53
2022-08-26T05:25:22.062Z,101785.78
2022-08-26T05:27:52.581Z,101795.44
2022-08-26T05:30:23.834Z,101791.25
2022-08-26T05:32:55.236Z,101780.16
2022-08-26T05:35:27.204Z,101777.47
2022-08-26T05:37:59.421Z,101777.31
2022-08-26T05:40:26.239Z,101771.00
2022-08-26T05:42:53.069Z,101772.41
2022-08-26T05:45:30.699Z,101767.00
2022-08-26T05:47:57.397Z,101767.06
2022-08-26T05:50:24.007Z,101762.09
2022-08-26T05:52:59.624Z,101757.63
2022-08-26T05:55:26.312Z,101765.25
2022-08-26T05:57:57.315Z,101760.19
2022-08-26T06:00:24.003Z,101764.34
2022-08-26T06:02:51.305Z,101771.75
2022-08-26T06:05:17.956Z,101776.91
2022-08-26T06:07:44.614Z,101777.69
2022-08-26T06:10:31.702Z,101773.09
2022-08-26T06:12:59.144Z,101775.66
2022-08-26T06:15:28.229Z,101786.56
2022-08-26T06:17:55.811Z,101783.47
2022-08-26T06:20:22.322Z,101789.97
2022-08-26T06:22:48.792Z,101793.97
2022-08-26T06:25:15.384Z,101802.88
2022-08-26T06:27:44.128Z,101808.31
2022-08-26T06:30:11.976Z,101817.19
2022-08-26T06:32:38.972Z,101824.44
2022-08-26T06:35:06.258Z,101823.69
2022-08-26T06:37:38.450Z,101829.34
2022-08-26T06:40:05.702Z,101835.69
2022-08-26T06:42:32.167Z,101838.78
2022-08-26T06:45:04.720Z,101851.19
2022-08-26T06:47:31.356Z,101844.72
2022-08-26T06:50:00.594Z,101859.19
2022-08-26T06:52:27.468Z,101857.81
2022-08-26T06:54:54.057Z,101864.63
2022-08-26T06:57:20.914Z,101868.22
2022-08-26T06:59:47.906Z,101876.63
2022-08-26T07:02:21.413Z,101876.53
2022-08-26T07:04:48.111Z,101880.94
2022-08-26T07:07:17.821Z,101888.84
2022-08-26T07:09:48.117Z,101896.13
2022-08-26T07:12:18.792Z,101901.06
2022-08-26T07:14:47.438Z,101895.28
2022-08-26T07:17:15.440Z,101867.31
2022-08-26T07:19:42.153Z,101865.28
2022-08-26T07:22:09.058Z,101870.00
2022-08-26T07:24:39.102Z,101871.53
2022-08-26T07:27:08.983Z,101868.41
2022-08-26T07:29:36.843Z,101880.84
2022-08-26T07:32:03.879Z,101867.78
2022-08-26T07:34:30.866Z,101870.75
2022-08-26T07:36:57.299Z,101853.41
2022-08-26T07:39:26.190Z,101839.72
2022-08-26T07:41:53.239Z,101844.13
2022-08-26T07:44:19.801Z,101841.97
2022-08-26T07:46:52.329Z,101847.13
2022-08-26T07:49:21.652Z,101838.63
2022-08-26T07:51:48.216Z,101812.66
2022-08-26T07:54:14.645Z,101810.53
2022-08-26T07:56:41.203Z,101791.66
2022-08-26T07:59:13.735Z,101786.06
2022-08-26T08:01:41.466Z,101767.63
2022-08-26T08:04:16.336Z,101768.50
2022-08-26T08:06:44.187Z,101771.91
2022-08-26T08:09:12.629Z,101780.06
2022-08-26T08:11:39.644Z,101791.66
2022-08-26T08:14:08.437Z,101800.03
2022-08-26T08:16:37.254Z,101800.00
2022-08-26T08:19:05.622Z,101812.78
2022-08-26T08:21:32.122Z,101818.28
2022-08-26T08:23:58.601Z,101833.91
2022-08-26T08:26:26.560Z,101856.25
2022-08-26T08:28:57.512Z,101849.66
2022-08-26T08:34:13.744Z,101869.41
2022-08-26T08:36:40.385Z,101872.41
2022-08-26T08:39:08.152Z,101871.63
2022-08-26T08:41:40.712Z,101881.72
2022-08-26T08:44:19.582Z,101869.19
2022-08-26T08:46:54.566Z,101853.94
2022-08-26T08:49:22.584Z,101873.03
2022-08-26T08:51:58.768Z,101864.38
2022-08-26T08:54:26.207Z,101869.91
2022-08-26T08:57:27.226Z,101870.56
2022-08-26T09:00:05.437Z,101869.75
2022-08-26T09:02:46.143Z,101858.63
2022-08-26T09:05:25.928Z,101857.13
2022-08-26T09:07:59.437Z,101861.22
2022-08-26T09:10:47.258Z,101870.69
2022-08-26T09:13:17.220Z,101875.72
2022-08-26T09:16:19.041Z,101879.00
2022-08-26T09:18:49.684Z,101894.47
2022-08-26T09:21:18.664Z,101901.66
2022-08-26T09:23:49.317Z,101904.31
2022-08-26T09:26:29.178Z,101896.69
2022-08-26T09:28:58.995Z,101887.31
2022-08-26T09:31:31.721Z,101903.88
2022-08-26T09:34:12.633Z,101896.50
2022-08-26T09:36:46.687Z,101882.25
2022-08-26T09:39:25.225Z,101902.44
2022-08-26T09:42:08.400Z,101910.94
2022-08-26T09:45:01.924Z,101918.47
2022-08-26T09:47:37.032Z,101924.06
2022-08-26T09:50:23.500Z,101906.81
2022-08-26T09:53:28.548Z,101838.59
2022-08-26T09:56:17.028Z,101823.00
2022-08-26T09:58:46.778Z,101829.75
2022-08-26T10:01:43.601Z,101824.00
2022-08-26T10:04:23.026Z,101824.56
2022-08-26T10:06:57.879Z,101807.84
2022-08-26T10:09:25.605Z,101801.06
2022-08-26T10:11:56.786Z,101791.41
2022-08-26T10:14:29.219Z,101773.47
2022-08-26T10:17:14.288Z,101754.22
2022-08-26T10:19:57.216Z,101774.66
2022-08-26T10:22:27.732Z,101769.53
2022-08-26T10:24:57.509Z,101799.78
2022-08-26T10:27:50.966Z,101775.19
2022-08-26T10:30:22.279Z,101776.38
2022-08-26T10:32:54.886Z,101768.56
2022-08-26T10:35:21.476Z,101740.59
2022-08-26T10:37:52.445Z,101749.59
2022-08-26T10:40:26.654Z,101751.22
2022-08-26T10:43:17.052Z,101762.16
2022-08-26T10:45:49.983Z,101765.38
2022-08-26T10:48:26.441Z,101792.47
2022-08-26T10:51:03.171Z,101793.78
2022-08-26T10:53:42.528Z,101793.00
2022-08-26T10:56:37.165Z,101803.22
2022-08-26T10:59:29.401Z,101841.91
2022-08-26T11:02:33.173Z,101832.81
2022-08-26T11:05:02.518Z,101857.97
2022-08-26T11:07:46.387Z,101848.03
2022-08-26T11:10:18.886Z,101847.81
2022-08-26T11:12:49.237Z,101861.97
2022-08-26T11:15:24.377Z,101904.50
2022-08-26T11:17:51.241Z,101917.59
2022-08-26T11:20:29.810Z,101931.31
2022-08-26T11:23:16.761Z,101898.81
2022-08-26T11:25:58.316Z,101923.09
2022-08-26T11:28:45.006Z,101951.28
2022-08-26T11:31:27.054Z,101966.72
2022-08-26T11:33:58.009Z,101968.88
2022-08-26T11:36:36.645Z,101976.41
2022-08-26T11:39:14.406Z,101986.50
2022-08-26T11:41:49.716Z,102000.88
2022-08-26T11:44:24.623Z,102029.66
2022-08-26T11:46:57.213Z,102059.31
2022-08-26T11:49:24.273Z,102114.09
2022-08-26T11:51:50.950Z,102120.75
2022-08-26T11:54:30.493Z,102171.25
2022-08-26T11:57:07.930Z,102228.06
2022-08-26T11:59:40.636Z,102178.69
2022-08-26T12:02:17.987Z,102162.16
2022-08-26T12:04:48.940Z,102111.94
2022-08-26T12:07:16.370Z,102106.44
2022-08-26T12:10:00.504Z,102114.69
2022-08-26T12:12:35.009Z,102083.78
2022-08-26T12:15:18.422Z,102044.72
2022-08-26T12:17:50.493Z,102026.63
2022-08-26T12:20:38.117Z,101988.94
2022-08-26T12:23:04.556Z,101957.34
2022-08-26T12:25:35.964Z,101967.97
2022-08-26T12:28:05.406Z,101982.38
2022-08-26T12:30:31.961Z,101989.84
2022-08-26T12:33:13.356Z,101979.09
2022-08-26T12:35:51.472Z,101998.88
2022-08-26T12:38:23.197Z,101983.78
2022-08-26T12:40:49.672Z,101965.09
2022-08-26T12:43:45.556Z,102000.31
2022-08-26T12:46:28.079Z,102001.69
2022-08-26T12:48:54.616Z,102053.66
2022-08-26T12:51:30.989Z,102074.38
2022-08-26T12:53:59.045Z,102065.03
2022-08-26T12:56:25.466Z,102056.63
2022-08-26T12:59:08.840Z,102092.53
2022-08-26T13:01:41.216Z,102071.56
2022-08-26T13:04:07.823Z,102051.66
2022-08-26T13:07:12.745Z,102020.78
2022-08-26T13:09:39.448Z,101996.50
2022-08-26T13:12:12.624Z,102002.09
2022-08-26T13:14:39.185Z,102020.25
2022-08-26T13:17:17.437Z,102003.19
2022-08-26T13:19:46.718Z,102006.28
2022-08-26T13:22:17.059Z,102035.66
2022-08-26T13:25:05.402Z,101997.91
2022-08-26T13:27:32.207Z,102006.50
2022-08-26T13:30:01.743Z,102031.41
2022-08-26T13:32:29.917Z,102027.00
2022-08-26T13:35:05.827Z,102043.78
2022-08-26T13:37:42.139Z,102041.28
2022-08-26T13:40:09.576Z,102039.16
2022-08-26T13:42:49.508Z,102057.13
2022-08-26T13:45:16.992Z,102077.94
2022-08-26T13:47:43.655Z,102102.72
2022-08-26T13:50:12.388Z,102087.97
2022-08-26T13:52:40.122Z,102062.72
2022-08-26T13:55:07.241Z,102012.84
2022-08-26T13:57:54.056Z,101964.97
2022-08-26T14:00:25.230Z,101941.34
2022-08-26T14:02:51.870Z,101940.59
2022-08-26T14:05:21.785Z,101951.22
2022-08-26T14:07:48.386Z,101937.16
2022-08-26T14:10:18.436Z,101965.28
2022-08-26T14:12:45.497Z,102020.69
2022-08-26T14:15:17.768Z,102034.00
2022-08-26T14:17:49.174Z,102039.69
2022-08-26T14:20:31.536Z,102048.50
2022-08-26T14:23:13.045Z,102010.28
2022-08-26T14:25:44.255Z,102050.88
2022-08-26T14:30:55.538Z,101985.31
2022-08-26T14:33:26.128Z,101974.56
2022-08-26T14:35:52.947Z,101976.22
2022-08-26T14:38:24.309Z,101961.94
2022-08-26T14:40:59.445Z,101989.53
2022-08-26T14:43:27.385Z,101967.28
2022-08-26T14:46:20.635Z,101963.44
2022-08-26T14:48:49.572Z,101959.91
2022-08-26T14:51:19.798Z,101972.34
2022-08-26T14:54:01.200Z,101942.53
2022-08-26T14:56:32.198Z,101918.19
2022-08-26T14:58:58.872Z,101899.31
2022-08-26T15:01:30.387Z,101910.75
2022-08-26T15:03:57.982Z,101938.34
2022-08-26T15:06:30.748Z,101962.53
2022-08-26T15:09:00.026Z,101947.47
2022-08-26T15:11:28.958Z,101944.00
2022-08-26T15:13:56.777Z,101962.53
2022-08-26T15:16:25.745Z,101985.09
2022-08-26T15:18:57.374Z,101976.84
2022-08-26T15:21:28.872Z,101923.97
2022-08-26T15:23:57.628Z,101920.97
2022-08-26T15:26:26.454Z,101945.22
2022-08-26T15:28:55.220Z,101940.53
2022-08-26T15:31:29.247Z,101974.72
2022-08-26T15:33:57.244Z,101996.88
2022-08-26T15:36:27.134Z,102026.09
2022-08-26T15:38:57.890Z,101992.84
2022-08-26T15:41:25.663Z,101971.00
2022-08-26T15:43:53.487Z,101938.66
2022-08-26T15:46:20.247Z,101893.19
2022-08-26T15:48:46.847Z,101853.91
2022-08-26T15:51:29.291Z,101846.72
2022-08-26T15:53:57.074Z,101834.88
2022-08-26T15:56:33.714Z,101847.19
2022-08-26T15:59:03.226Z,101798.28
2022-08-26T16:01:33.022Z,101826.47
2022-08-26T16:04:03.515Z,101847.00
2022-08-26T16:06:37.848Z,101859.16
2022-08-26T16:09:08.188Z,101850.66
2022-08-26T16:11:37.846Z,101866.72
2022-08-26T16:14:05.552Z,101834.03
2022-08-26T16:17:09.415Z,101836.50
2022-08-26T16:19:27.523Z,101835.72
2022-08-26T16:21:55.376Z,101842.13
2022-08-26T16:24:29.790Z,101843.16
2022-08-26T16:26:57.068Z,101823.63
2022-08-26T16:29:25.804Z,101813.97
2022-08-26T16:31:54.449Z,101830.50
2022-08-26T16:34:22.109Z,101823.63
2022-08-26T16:36:52.255Z,101816.53
2022-08-26T16:39:20.153Z,101863.81
2022-08-26T16:41:49.061Z,101869.38
2022-08-26T16:44:24.130Z,101886.00
2022-08-26T16:47:03.400Z,101912.75
2022-08-26T16:49:32.327Z,101933.00
2022-08-26T16:52:00.704Z,101912.75
2022-08-26T16:54:33.608Z,101909.31
2022-08-26T16:59:50.386Z,101893.16
2022-08-26T17:02:23.099Z,101855.59
2022-08-26T17:04:51.177Z,101859.97
2022-08-26T17:07:30.125Z,101840.31
2022-08-26T17:09:57.943Z,101848.91
2022-08-26T17:12:24.615Z,101822.63
2022-08-26T17:14:58.154Z,101826.28
2022-08-26T17:17:35.910Z,101837.63
2022-08-26T17:20:14.925Z,101824.06
2022-08-26T17:22:56.523Z,101824.25
2022-08-26T17:25:29.041Z,101828.38
2022-08-26T17:28:01.891Z,101849.19
2022-08-26T17:30:29.827Z,101856.91
2022-08-26T17:33:11.018Z,101862.84
2022-08-26T17:35:40.113Z,101887.66
2022-08-26T17:38:06.782Z,101912.94
2022-08-26T17:40:35.408Z,101948.19
2022-08-26T17:43:01.931Z,101925.97
2022-08-26T17:45:28.390Z,101888.22
2022-08-26T17:47:56.040Z,101886.63
2022-08-26T17:50:23.856Z,101862.81
2022-08-26T17:52:50.368Z,101815.94
2022-08-26T17:55:18.530Z,101804.56
2022-08-26T17:57:53.566Z,101788.94
2022-08-26T18:00:23.464Z,101779.34
2022-08-26T18:02:49.898Z,101763.94
2022-08-26T18:05:16.628Z,101751.31
2022-08-26T18:07:44.295Z,101737.69
2022-08-26T18:10:13.474Z,101728.41
2022-08-26T18:12:40.875Z,101750.28
2022-08-26T18:15:08.713Z,101761.50
2022-08-26T18:17:35.344Z,101769.28
2022-08-26T18:20:02.085Z,101767.72
2022-08-26T18:22:29.007Z,101774.00
2022-08-26T18:24:58.888Z,101761.16
2022-08-26T18:27:27.316Z,101743.56
2022-08-26T18:29:57.202Z,101739.00
2022-08-26T18:32:23.886Z,101738.72
2022-08-26T18:34:50.562Z,101766.59
2022-08-26T18:37:21.299Z,101769.13
2022-08-26T18:39:50.192Z,101794.28
2022-08-26T18:42:19.286Z,101805.44
2022-08-26T18:45:19.636Z,101791.53
2022-08-26T18:47:40.215Z,101784.81
2022-08-26T18:50:16.424Z,101791.00
2022-08-26T18:52:46.732Z,101782.63
2022-08-26T18:55:13.244Z,101774.47
2022-08-26T18:57:39.954Z,101756.59
2022-08-26T19:00:07.898Z,101742.53
2022-08-26T19:02:34.646Z,101740.00
2022-08-26T19:05:01.426Z,101751.44
2022-08-26T19:07:27.881Z,101743.00
2022-08-26T19:09:54.379Z,101741.59
2022-08-26T19:12:21.010Z,101727.97
2022-08-26T19:14:47.430Z,101728.22
2022-08-26T19:17:14.188Z,101730.34
2022-08-26T19:19:40.760Z,101715.78
2022-08-26T19:22:07.579Z,101715.72
2022-08-26T19:24:34.241Z,101717.13
2022-08-26T19:27:02.147Z,101746.38
2022-08-26T19:29:33.453Z,101738.63
2022-08-26T19:32:00.293Z,101752.63
2022-08-26T19:34:26.769Z,101736.81
2022-08-26T19:36:54.183Z,101757.72
2022-08-26T19:39:21.454Z,101730.97
2022-08-26T19:41:48.124Z,101727.00
2022-08-26T19:44:17.133Z,101728.84
2022-08-26T19:46:43.596Z,101724.78
2022-08-26T19:49:10.231Z,101720.69
2022-08-26T19:51:41.359Z,101730.19
2022-08-26T19:54:12.109Z,101712.53
2022-08-26T19:56:42.050Z,101711.25
2022-08-26T19:59:21.174Z,101703.59
2022-08-26T20:01:55.171Z,101720.31
2022-08-26T20:04:30.215Z,101713.59
2022-08-26T20:07:00.941Z,101719.03
2022-08-26T20:09:34.120Z,101704.38
2022-08-26T20:12:01.546Z,101718.59
2022-08-26T20:14:32.414Z,101707.41
2022-08-26T20:17:01.469Z,101713.16
2022-08-26T20:19:27.984Z,101716.88
2022-08-26T20:21:54.833Z,101723.41
2022-08-26T20:25:08.156Z,101733.16
2022-08-26T20:27:08.859Z,101726.31
2022-08-26T20:29:38.967Z,101714.47
2022-08-26T20:32:07.640Z,101712.94
2022-08-26T20:34:37.456Z,101718.38
2022-08-26T20:37:04.440Z,101727.28
2022-08-26T20:39:32.258Z,101740.75
2022-08-26T20:42:00.756Z,101755.72
2022-08-26T20:44:28.597Z,101753.38
2022-08-26T20:46:57.643Z,101746.38
2022-08-26T20:49:26.673Z,101761.25
2022-08-26T20:51:53.358Z,101758.72
2022-08-26T20:54:26.161Z,101759.78
2022-08-26T20:56:58.502Z,101745.88
2022-08-26T20:59:25.892Z,101745.88
2022-08-26T21:01:52.901Z,101747.72
2022-08-26T21:04:29.849Z,101745.97
2022-08-26T21:06:57.760Z,101735.72
2022-08-26T21:09:28.198Z,101737.66
2022-08-26T21:11:58.799Z,101731.06
2022-08-26T21:14:26.462Z,101732.31
2022-08-26T21:16:54.610Z,101746.75
2022-08-26T21:19:23.907Z,101751.13
2022-08-26T21:21:52.044Z,101762.41
2022-08-26T21:24:20.006Z,101752.72
2022-08-26T21:26:50.638Z,101763.31
2022-08-26T21:29:17.190Z,101767.97
2022-08-26T21:31:46.383Z,101763.72
2022-08-26T21:34:16.407Z,101762.13
2022-08-26T21:36:45.904Z,101763.97
2022-08-26T21:39:15.430Z,101763.97
2022-08-26T21:41:51.651Z,101756.31
2022-08-26T21:44:18.538Z,101759.16
2022-08-26T21:46:48.609Z,101757.53
2022-08-26T21:49:17.368Z,101763.91
2022-08-26T21:51:47.301Z,101759.38
2022-08-26T21:54:15.141Z,101764.84
2022-08-26T21:56:46.042Z,101768.28
2022-08-26T21:59:15.238Z,101782.53
2022-08-26T22:01:41.876Z,101776.50
2022-08-26T22:04:09.827Z,101782.53
2022-08-26T22:06:46.453Z,101780.03
2022-08-26T22:09:15.169Z,101779.34
2022-08-26T22:11:41.853Z,101794.47
2022-08-26T22:14:08.823Z,101793.78
2022-08-26T22:16:35.326Z,101797.34
2022-08-26T22:19:01.825Z,101795.03
2022-08-26T22:21:28.428Z,101793.25
2022-08-26T22:23:57.956Z,101785.59
2022-08-26T22:26:27.552Z,101789.28
2022-08-26T22:28:55.628Z,101782.50
2022-08-26T22:31:28.111Z,101783.47
2022-08-26T22:34:06.365Z,101790.34
2022-08-26T22:36:32.857Z,101788.03
2022-08-26T22:38:59.283Z,101789.84
2022-08-26T22:41:28.379Z,101815.59
2022-08-26T22:44:01.776Z,101824.44
2022-08-26T22:46:29.900Z,101811.25
2022-08-26T22:48:56.534Z,101818.19
2022-08-26T22:51:23.048Z,101814.94
2022-08-26T22:53:51.635Z,101817.59
2022-08-26T22:56:18.374Z,101820.38
2022-08-26T22:58:46.863Z,101831.81
2022-08-26T23:01:16.706Z,101824.06
2022-08-26T23:03:44.395Z,101936.31
2022-08-26T23:06:14.033Z,101944.19
2022-08-26T23:08:41.491Z,101951.34
2022-08-26T23:11:10.145Z,101962.09
2022-08-26T23:13:36.763Z,101956.06
2022-08-26T23:16:07.861Z,101960.47
2022-08-26T23:18:35.448Z,101962.31
2022-08-26T23:21:04.983Z,101955.34
2022-08-26T23:23:32.269Z,101973.00
2022-08-26T23:26:03.242Z,101959.91
2022-08-26T23:28:32.335Z,101966.06
2022-08-26T23:30:58.863Z,101964.34
2022-08-26T23:33:25.557Z,101960.91
2022-08-26T23:35:52.141Z,101973.31
2022-08-26T23:38:18.699Z,101961.97
2022-08-26T23:40:47.331Z,101959.44
2022-08-26T23:43:13.813Z,101958.72
2022-08-26T23:45:42.619Z,101956.06
2022-08-26T23:48:09.345Z,101959.66
2022-08-26T23:50:38.020Z,101958.00
2022-08-26T23:53:04.673Z,101945.78
2022-08-26T23:55:36.923Z,101946.81
2022-08-26T23:58:03.963Z,101950.41
